Terminal Aerodrome Forecast
Issued by NWS Blacksburg, VA

Home | Current Version | Previous Version | Text Only | Print | Product List | Glossary On
Versions: 1 2 3 4 5 6 7 8 9 10 11 12 13 14 15 16 17 18
000
FTUS41 KRNK 251139
TAFLYH
TAF
KLYH 251139Z 2512/2612 20008KT P6SM BKN200
     FM251500 20012KT P6SM OVC035
      TEMPO 2516/2518 5SM -SHRA
     FM251800 25012KT P6SM VCTS BKN035CB
     FM252000 27015G25KT P6SM BKN060
     FM260500 28008KT P6SM FEW250=

USA.gov is the U.S. government's official web portal to all federal, state and local government web resources and services.